sensor_id;sensor_type;location;lat;lon;timestamp;P1;durP1;ratioP1;P2;durP2;ratioP2
3993;SDS011;2011;48.238;13.948;2023-11-22T00:02:24;46.17;;;24.00;;
3993;SDS011;2011;48.238;13.948;2023-11-22T00:04:54;39.27;;;23.63;;
3993;SDS011;2011;48.238;13.948;2023-11-22T00:07:21;50.00;;;23.63;;
3993;SDS011;2011;48.238;13.948;2023-11-22T00:09:49;43.60;;;23.47;;
3993;SDS011;2011;48.238;13.948;2023-11-22T00:12:17;40.23;;;23.20;;
3993;SDS011;2011;48.238;13.948;2023-11-22T00:14:44;41.40;;;23.50;;
3993;SDS011;2011;48.238;13.948;2023-11-22T00:17:12;44.63;;;24.97;;
3993;SDS011;2011;48.238;13.948;2023-11-22T00:19:39;41.47;;;22.90;;
3993;SDS011;2011;48.238;13.948;2023-11-22T00:22:06;43.10;;;23.67;;
3993;SDS011;2011;48.238;13.948;2023-11-22T00:24:38;43.13;;;22.80;;
3993;SDS011;2011;48.238;13.948;2023-11-22T00:27:06;40.20;;;22.33;;
3993;SDS011;2011;48.238;13.948;2023-11-22T00:29:35;37.23;;;22.40;;
3993;SDS011;2011;48.238;13.948;2023-11-22T00:32:02;41.60;;;22.30;;
3993;SDS011;2011;48.238;13.948;2023-11-22T00:34:29;44.30;;;23.10;;
3993;SDS011;2011;48.238;13.948;2023-11-22T00:36:57;45.53;;;22.97;;
3993;SDS011;2011;48.238;13.948;2023-11-22T00:39:24;39.50;;;22.63;;
3993;SDS011;2011;48.238;13.948;2023-11-22T00:41:51;35.27;;;20.33;;
3993;SDS011;2011;48.238;13.948;2023-11-22T00:44:19;54.77;;;24.30;;
3993;SDS011;2011;48.238;13.948;2023-11-22T00:46:46;41.60;;;23.63;;
3993;SDS011;2011;48.238;13.948;2023-11-22T00:49:13;35.87;;;21.57;;
3993;SDS011;2011;48.238;13.948;2023-11-22T00:51:40;40.23;;;21.80;;
3993;SDS011;2011;48.238;13.948;2023-11-22T00:54:07;35.97;;;22.00;;
3993;SDS011;2011;48.238;13.948;2023-11-22T00:56:34;43.87;;;22.23;;
3993;SDS011;2011;48.238;13.948;2023-11-22T00:59:02;38.13;;;20.73;;
3993;SDS011;2011;48.238;13.948;2023-11-22T01:01:30;39.63;;;23.27;;
3993;SDS011;2011;48.238;13.948;2023-11-22T01:03:58;45.33;;;24.60;;
3993;SDS011;2011;48.238;13.948;2023-11-22T01:06:25;42.53;;;23.80;;
3993;SDS011;2011;48.238;13.948;2023-11-22T01:08:52;50.17;;;25.47;;
3993;SDS011;2011;48.238;13.948;2023-11-22T01:11:19;34.10;;;19.27;;
3993;SDS011;2011;48.238;13.948;2023-11-22T01:13:46;23.83;;;14.20;;
3993;SDS011;2011;48.238;13.948;2023-11-22T01:16:13;20.83;;;13.40;;
3993;SDS011;2011;48.238;13.948;2023-11-22T01:18:42;20.07;;;13.07;;
3993;SDS011;2011;48.238;13.948;2023-11-22T01:21:11;17.70;;;11.33;;
3993;SDS011;2011;48.238;13.948;2023-11-22T01:23:38;15.73;;;10.40;;
3993;SDS011;2011;48.238;13.948;2023-11-22T01:26:05;17.20;;;10.63;;
3993;SDS011;2011;48.238;13.948;2023-11-22T01:28:32;20.83;;;10.43;;
3993;SDS011;2011;48.238;13.948;2023-11-22T01:30:59;14.83;;;9.53;;
3993;SDS011;2011;48.238;13.948;2023-11-22T01:33:26;21.60;;;9.63;;
3993;SDS011;2011;48.238;13.948;2023-11-22T01:35:55;11.30;;;8.27;;
3993;SDS011;2011;48.238;13.948;2023-11-22T01:38:22;9.37;;;6.47;;
3993;SDS011;2011;48.238;13.948;2023-11-22T01:40:51;10.00;;;5.90;;
3993;SDS011;2011;48.238;13.948;2023-11-22T01:43:18;9.17;;;6.63;;
3993;SDS011;2011;48.238;13.948;2023-11-22T01:45:49;9.80;;;7.30;;
3993;SDS011;2011;48.238;13.948;2023-11-22T01:48:15;8.57;;;5.67;;
3993;SDS011;2011;48.238;13.948;2023-11-22T01:50:42;8.80;;;5.90;;
3993;SDS011;2011;48.238;13.948;2023-11-22T01:53:12;8.33;;;4.97;;
3993;SDS011;2011;48.238;13.948;2023-11-22T01:55:39;7.63;;;5.10;;
3993;SDS011;2011;48.238;13.948;2023-11-22T01:58:08;7.87;;;5.03;;
3993;SDS011;2011;48.238;13.948;2023-11-22T02:00:35;5.37;;;4.23;;
3993;SDS011;2011;48.238;13.948;2023-11-22T02:03:08;8.70;;;5.17;;
3993;SDS011;2011;48.238;13.948;2023-11-22T02:05:35;6.50;;;4.40;;
3993;SDS011;2011;48.238;13.948;2023-11-22T02:08:03;9.00;;;4.73;;
3993;SDS011;2011;48.238;13.948;2023-11-22T02:10:31;7.47;;;5.13;;
3993;SDS011;2011;48.238;13.948;2023-11-22T02:12:58;5.70;;;4.30;;
3993;SDS011;2011;48.238;13.948;2023-11-22T02:15:29;4.87;;;4.10;;
3993;SDS011;2011;48.238;13.948;2023-11-22T02:17:56;6.10;;;4.50;;
3993;SDS011;2011;48.238;13.948;2023-11-22T02:20:24;9.83;;;4.47;;
3993;SDS011;2011;48.238;13.948;2023-11-22T02:22:51;5.80;;;4.20;;
3993;SDS011;2011;48.238;13.948;2023-11-22T02:25:20;7.30;;;4.10;;
3993;SDS011;2011;48.238;13.948;2023-11-22T02:27:47;5.07;;;3.70;;
3993;SDS011;2011;48.238;13.948;2023-11-22T02:30:14;6.00;;;4.13;;
3993;SDS011;2011;48.238;13.948;2023-11-22T02:32:41;6.00;;;4.53;;
3993;SDS011;2011;48.238;13.948;2023-11-22T02:35:10;7.20;;;3.60;;
3993;SDS011;2011;48.238;13.948;2023-11-22T02:37:38;5.00;;;3.87;;
3993;SDS011;2011;48.238;13.948;2023-11-22T02:40:05;5.50;;;4.10;;
3993;SDS011;2011;48.238;13.948;2023-11-22T02:42:42;6.63;;;3.80;;
3993;SDS011;2011;48.238;13.948;2023-11-22T02:45:09;5.00;;;3.80;;
3993;SDS011;2011;48.238;13.948;2023-11-22T02:47:36;4.50;;;3.47;;
3993;SDS011;2011;48.238;13.948;2023-11-22T02:50:04;4.23;;;3.20;;
3993;SDS011;2011;48.238;13.948;2023-11-22T02:52:31;5.13;;;3.70;;
3993;SDS011;2011;48.238;13.948;2023-11-22T02:54:58;5.83;;;3.70;;
3993;SDS011;2011;48.238;13.948;2023-11-22T02:57:25;5.37;;;3.60;;
3993;SDS011;2011;48.238;13.948;2023-11-22T02:59:54;5.53;;;3.87;;
3993;SDS011;2011;48.238;13.948;2023-11-22T03:02:21;4.93;;;3.43;;
3993;SDS011;2011;48.238;13.948;2023-11-22T03:04:48;5.00;;;3.40;;
3993;SDS011;2011;48.238;13.948;2023-11-22T03:07:15;4.23;;;3.10;;
3993;SDS011;2011;48.238;13.948;2023-11-22T03:09:42;5.97;;;3.80;;
3993;SDS011;2011;48.238;13.948;2023-11-22T03:12:11;5.23;;;3.40;;
3993;SDS011;2011;48.238;13.948;2023-11-22T03:14:38;4.80;;;3.40;;
3993;SDS011;2011;48.238;13.948;2023-11-22T03:17:06;4.87;;;3.33;;
3993;SDS011;2011;48.238;13.948;2023-11-22T03:19:34;4.87;;;3.13;;
3993;SDS011;2011;48.238;13.948;2023-11-22T03:22:01;8.23;;;3.07;;
3993;SDS011;2011;48.238;13.948;2023-11-22T03:24:28;9.00;;;3.80;;
3993;SDS011;2011;48.238;13.948;2023-11-22T03:26:55;5.37;;;3.57;;
3993;SDS011;2011;48.238;13.948;2023-11-22T03:29:24;5.00;;;3.37;;
3993;SDS011;2011;48.238;13.948;2023-11-22T03:31:51;4.63;;;3.30;;
3993;SDS011;2011;48.238;13.948;2023-11-22T03:34:20;4.63;;;3.37;;
3993;SDS011;2011;48.238;13.948;2023-11-22T03:36:47;5.53;;;3.10;;
3993;SDS011;2011;48.238;13.948;2023-11-22T03:39:14;4.27;;;3.10;;
3993;SDS011;2011;48.238;13.948;2023-11-22T03:41:41;4.27;;;3.20;;
3993;SDS011;2011;48.238;13.948;2023-11-22T03:44:09;5.40;;;3.37;;
3993;SDS011;2011;48.238;13.948;2023-11-22T03:46:35;5.27;;;3.00;;
3993;SDS011;2011;48.238;13.948;2023-11-22T03:49:03;4.40;;;3.20;;
3993;SDS011;2011;48.238;13.948;2023-11-22T03:51:33;6.20;;;3.93;;
3993;SDS011;2011;48.238;13.948;2023-11-22T03:54:00;4.90;;;3.00;;
3993;SDS011;2011;48.238;13.948;2023-11-22T03:56:28;4.40;;;3.27;;
3993;SDS011;2011;48.238;13.948;2023-11-22T03:58:55;6.47;;;2.50;;
3993;SDS011;2011;48.238;13.948;2023-11-22T04:01:22;4.63;;;2.70;;
3993;SDS011;2011;48.238;13.948;2023-11-22T04:03:49;4.77;;;2.80;;
3993;SDS011;2011;48.238;13.948;2023-11-22T04:06:16;4.00;;;3.10;;
3993;SDS011;2011;48.238;13.948;2023-11-22T04:08:45;4.37;;;2.80;;
3993;SDS011;2011;48.238;13.948;2023-11-22T04:11:13;3.43;;;2.20;;
3993;SDS011;2011;48.238;13.948;2023-11-22T04:13:41;4.33;;;2.90;;
3993;SDS011;2011;48.238;13.948;2023-11-22T04:16:08;3.80;;;2.67;;
3993;SDS011;2011;48.238;13.948;2023-11-22T04:18:37;4.50;;;2.50;;
3993;SDS011;2011;48.238;13.948;2023-11-22T04:21:05;4.87;;;2.83;;
3993;SDS011;2011;48.238;13.948;2023-11-22T04:23:32;3.33;;;2.17;;
3993;SDS011;2011;48.238;13.948;2023-11-22T04:26:02;3.73;;;2.50;;
3993;SDS011;2011;48.238;13.948;2023-11-22T04:28:29;4.80;;;2.50;;
3993;SDS011;2011;48.238;13.948;2023-11-22T04:30:56;3.37;;;2.73;;
3993;SDS011;2011;48.238;13.948;2023-11-22T04:33:23;3.77;;;2.20;;
3993;SDS011;2011;48.238;13.948;2023-11-22T04:35:53;3.93;;;2.60;;
3993;SDS011;2011;48.238;13.948;2023-11-22T04:38:20;3.53;;;2.30;;
3993;SDS011;2011;48.238;13.948;2023-11-22T04:40:47;3.20;;;2.30;;
3993;SDS011;2011;48.238;13.948;2023-11-22T04:43:15;3.30;;;2.70;;
3993;SDS011;2011;48.238;13.948;2023-11-22T04:45:42;4.37;;;2.70;;
3993;SDS011;2011;48.238;13.948;2023-11-22T04:48:09;4.33;;;2.87;;
3993;SDS011;2011;48.238;13.948;2023-11-22T04:50:36;4.17;;;3.00;;
3993;SDS011;2011;48.238;13.948;2023-11-22T04:53:03;4.83;;;3.03;;
3993;SDS011;2011;48.238;13.948;2023-11-22T04:55:30;4.10;;;3.10;;
3993;SDS011;2011;48.238;13.948;2023-11-22T04:57:56;5.60;;;2.93;;
3993;SDS011;2011;48.238;13.948;2023-11-22T05:00:25;3.63;;;2.70;;
3993;SDS011;2011;48.238;13.948;2023-11-22T05:02:52;4.30;;;3.03;;
3993;SDS011;2011;48.238;13.948;2023-11-22T05:05:19;3.83;;;2.90;;
3993;SDS011;2011;48.238;13.948;2023-11-22T05:07:47;8.63;;;3.40;;
3993;SDS011;2011;48.238;13.948;2023-11-22T05:10:13;5.53;;;3.47;;
3993;SDS011;2011;48.238;13.948;2023-11-22T05:12:42;4.63;;;3.30;;
3993;SDS011;2011;48.238;13.948;2023-11-22T05:15:09;3.93;;;3.23;;
3993;SDS011;2011;48.238;13.948;2023-11-22T05:17:38;6.23;;;3.30;;
3993;SDS011;2011;48.238;13.948;2023-11-22T05:20:06;4.73;;;3.60;;
3993;SDS011;2011;48.238;13.948;2023-11-22T05:22:34;4.40;;;3.10;;
3993;SDS011;2011;48.238;13.948;2023-11-22T05:25:01;4.30;;;3.03;;
3993;SDS011;2011;48.238;13.948;2023-11-22T05:27:28;4.97;;;2.87;;
3993;SDS011;2011;48.238;13.948;2023-11-22T05:29:56;4.10;;;2.90;;
3993;SDS011;2011;48.238;13.948;2023-11-22T05:32:23;9.67;;;3.20;;
3993;SDS011;2011;48.238;13.948;2023-11-22T05:34:52;4.57;;;3.33;;
3993;SDS011;2011;48.238;13.948;2023-11-22T05:37:19;4.97;;;3.50;;
3993;SDS011;2011;48.238;13.948;2023-11-22T05:39:46;4.93;;;3.20;;
3993;SDS011;2011;48.238;13.948;2023-11-22T05:42:13;5.70;;;3.13;;
3993;SDS011;2011;48.238;13.948;2023-11-22T05:44:40;6.67;;;3.60;;
3993;SDS011;2011;48.238;13.948;2023-11-22T05:47:07;5.30;;;3.53;;
3993;SDS011;2011;48.238;13.948;2023-11-22T05:49:34;5.40;;;3.60;;
3993;SDS011;2011;48.238;13.948;2023-11-22T05:52:02;5.80;;;3.80;;
3993;SDS011;2011;48.238;13.948;2023-11-22T05:54:30;5.23;;;3.60;;
3993;SDS011;2011;48.238;13.948;2023-11-22T05:56:57;4.10;;;3.50;;
3993;SDS011;2011;48.238;13.948;2023-11-22T05:59:24;7.73;;;4.17;;
3993;SDS011;2011;48.238;13.948;2023-11-22T06:01:51;7.50;;;4.63;;
3993;SDS011;2011;48.238;13.948;2023-11-22T06:04:18;4.67;;;3.60;;
3993;SDS011;2011;48.238;13.948;2023-11-22T06:06:45;5.40;;;4.00;;
3993;SDS011;2011;48.238;13.948;2023-11-22T06:09:13;5.10;;;3.87;;
3993;SDS011;2011;48.238;13.948;2023-11-22T06:11:40;4.60;;;3.60;;
3993;SDS011;2011;48.238;13.948;2023-11-22T06:14:07;4.50;;;3.60;;
3993;SDS011;2011;48.238;13.948;2023-11-22T06:16:34;8.97;;;3.80;;
3993;SDS011;2011;48.238;13.948;2023-11-22T06:19:01;5.67;;;4.20;;
3993;SDS011;2011;48.238;13.948;2023-11-22T06:21:28;6.17;;;4.63;;
3993;SDS011;2011;48.238;13.948;2023-11-22T06:23:55;7.47;;;5.47;;
3993;SDS011;2011;48.238;13.948;2023-11-22T06:26:24;7.23;;;4.87;;
3993;SDS011;2011;48.238;13.948;2023-11-22T06:28:51;10.23;;;6.33;;
3993;SDS011;2011;48.238;13.948;2023-11-22T06:31:18;10.30;;;6.90;;
3993;SDS011;2011;48.238;13.948;2023-11-22T06:33:45;10.10;;;6.53;;
3993;SDS011;2011;48.238;13.948;2023-11-22T06:36:12;9.30;;;6.47;;
3993;SDS011;2011;48.238;13.948;2023-11-22T06:38:40;10.17;;;6.13;;
3993;SDS011;2011;48.238;13.948;2023-11-22T06:41:06;9.00;;;6.40;;
3993;SDS011;2011;48.238;13.948;2023-11-22T06:43:34;12.43;;;7.50;;
3993;SDS011;2011;48.238;13.948;2023-11-22T06:46:01;8.53;;;5.93;;
3993;SDS011;2011;48.238;13.948;2023-11-22T06:48:30;10.60;;;6.07;;
3993;SDS011;2011;48.238;13.948;2023-11-22T06:50:58;9.03;;;6.17;;
3993;SDS011;2011;48.238;13.948;2023-11-22T06:53:26;16.53;;;6.70;;
3993;SDS011;2011;48.238;13.948;2023-11-22T06:55:53;9.70;;;6.30;;
3993;SDS011;2011;48.238;13.948;2023-11-22T06:58:20;9.23;;;6.50;;
3993;SDS011;2011;48.238;13.948;2023-11-22T07:00:48;17.50;;;6.93;;
3993;SDS011;2011;48.238;13.948;2023-11-22T07:03:15;9.53;;;6.50;;
3993;SDS011;2011;48.238;13.948;2023-11-22T07:05:42;11.73;;;6.50;;
3993;SDS011;2011;48.238;13.948;2023-11-22T07:08:09;11.53;;;6.77;;
3993;SDS011;2011;48.238;13.948;2023-11-22T07:10:36;8.40;;;6.30;;
3993;SDS011;2011;48.238;13.948;2023-11-22T07:13:03;9.67;;;6.80;;
3993;SDS011;2011;48.238;13.948;2023-11-22T07:15:30;7.60;;;5.43;;
3993;SDS011;2011;48.238;13.948;2023-11-22T07:17:59;8.53;;;5.73;;
3993;SDS011;2011;48.238;13.948;2023-11-22T07:20:26;12.13;;;6.67;;
3993;SDS011;2011;48.238;13.948;2023-11-22T07:22:53;8.87;;;5.90;;
3993;SDS011;2011;48.238;13.948;2023-11-22T07:25:22;8.30;;;6.30;;
3993;SDS011;2011;48.238;13.948;2023-11-22T07:27:50;10.23;;;6.80;;
3993;SDS011;2011;48.238;13.948;2023-11-22T07:30:18;15.90;;;6.93;;
3993;SDS011;2011;48.238;13.948;2023-11-22T07:32:48;13.70;;;6.67;;
3993;SDS011;2011;48.238;13.948;2023-11-22T07:35:17;13.60;;;6.97;;
3993;SDS011;2011;48.238;13.948;2023-11-22T07:37:46;9.50;;;6.47;;
3993;SDS011;2011;48.238;13.948;2023-11-22T07:40:13;14.57;;;7.50;;
3993;SDS011;2011;48.238;13.948;2023-11-22T07:42:40;10.20;;;6.83;;
3993;SDS011;2011;48.238;13.948;2023-11-22T07:45:09;19.93;;;6.80;;
3993;SDS011;2011;48.238;13.948;2023-11-22T07:47:37;8.20;;;6.10;;
3993;SDS011;2011;48.238;13.948;2023-11-22T07:50:07;10.30;;;6.83;;
3993;SDS011;2011;48.238;13.948;2023-11-22T07:52:36;10.83;;;6.90;;
3993;SDS011;2011;48.238;13.948;2023-11-22T07:55:05;10.13;;;6.00;;
3993;SDS011;2011;48.238;13.948;2023-11-22T07:57:33;9.00;;;6.50;;
3993;SDS011;2011;48.238;13.948;2023-11-22T08:00:00;18.83;;;7.17;;
3993;SDS011;2011;48.238;13.948;2023-11-22T08:02:32;10.50;;;6.73;;
3993;SDS011;2011;48.238;13.948;2023-11-22T08:04:59;17.60;;;7.67;;
3993;SDS011;2011;48.238;13.948;2023-11-22T08:07:28;29.33;;;8.17;;
3993;SDS011;2011;48.238;13.948;2023-11-22T08:09:59;15.60;;;7.73;;
3993;SDS011;2011;48.238;13.948;2023-11-22T08:12:34;19.70;;;7.40;;
3993;SDS011;2011;48.238;13.948;2023-11-22T08:15:02;9.77;;;7.13;;
3993;SDS011;2011;48.238;13.948;2023-11-22T08:17:30;10.93;;;6.90;;
3993;SDS011;2011;48.238;13.948;2023-11-22T08:19:58;13.20;;;7.40;;
3993;SDS011;2011;48.238;13.948;2023-11-22T08:22:25;18.20;;;7.40;;
3993;SDS011;2011;48.238;13.948;2023-11-22T08:24:54;12.63;;;7.27;;
3993;SDS011;2011;48.238;13.948;2023-11-22T08:27:23;15.37;;;7.90;;
3993;SDS011;2011;48.238;13.948;2023-11-22T08:29:50;12.77;;;7.27;;
3993;SDS011;2011;48.238;13.948;2023-11-22T08:32:17;16.93;;;8.07;;
3993;SDS011;2011;48.238;13.948;2023-11-22T08:34:48;13.87;;;7.60;;
3993;SDS011;2011;48.238;13.948;2023-11-22T08:37:15;14.37;;;8.30;;
3993;SDS011;2011;48.238;13.948;2023-11-22T08:39:42;9.97;;;7.40;;
3993;SDS011;2011;48.238;13.948;2023-11-22T08:42:09;12.93;;;6.57;;
3993;SDS011;2011;48.238;13.948;2023-11-22T08:44:37;14.30;;;7.50;;
3993;SDS011;2011;48.238;13.948;2023-11-22T08:47:04;9.57;;;7.53;;
3993;SDS011;2011;48.238;13.948;2023-11-22T08:49:33;11.50;;;6.70;;
3993;SDS011;2011;48.238;13.948;2023-11-22T08:52:00;11.03;;;7.30;;
3993;SDS011;2011;48.238;13.948;2023-11-22T08:54:28;22.93;;;7.00;;
3993;SDS011;2011;48.238;13.948;2023-11-22T08:56:54;9.87;;;7.33;;
3993;SDS011;2011;48.238;13.948;2023-11-22T08:59:22;9.97;;;7.90;;
3993;SDS011;2011;48.238;13.948;2023-11-22T09:01:51;12.40;;;8.30;;
3993;SDS011;2011;48.238;13.948;2023-11-22T09:04:18;11.57;;;8.10;;
3993;SDS011;2011;48.238;13.948;2023-11-22T09:06:45;16.63;;;7.93;;
3993;SDS011;2011;48.238;13.948;2023-11-22T09:09:12;15.87;;;7.20;;
3993;SDS011;2011;48.238;13.948;2023-11-22T09:11:41;11.03;;;6.90;;
3993;SDS011;2011;48.238;13.948;2023-11-22T09:14:08;9.03;;;6.90;;
3993;SDS011;2011;48.238;13.948;2023-11-22T09:16:35;11.20;;;7.20;;
3993;SDS011;2011;48.238;13.948;2023-11-22T09:19:05;9.93;;;7.37;;
3993;SDS011;2011;48.238;13.948;2023-11-22T09:21:33;13.23;;;6.97;;
3993;SDS011;2011;48.238;13.948;2023-11-22T09:24:00;8.93;;;7.00;;
3993;SDS011;2011;48.238;13.948;2023-11-22T09:26:27;9.17;;;6.43;;
3993;SDS011;2011;48.238;13.948;2023-11-22T09:28:55;11.40;;;6.97;;
3993;SDS011;2011;48.238;13.948;2023-11-22T09:31:23;25.50;;;7.30;;
3993;SDS011;2011;48.238;13.948;2023-11-22T09:33:51;12.97;;;7.63;;
3993;SDS011;2011;48.238;13.948;2023-11-22T09:36:20;11.90;;;7.20;;
3993;SDS011;2011;48.238;13.948;2023-11-22T09:38:47;8.13;;;6.47;;
3993;SDS011;2011;48.238;13.948;2023-11-22T09:41:14;10.63;;;7.30;;
3993;SDS011;2011;48.238;13.948;2023-11-22T09:43:44;12.83;;;6.43;;
3993;SDS011;2011;48.238;13.948;2023-11-22T09:46:14;9.70;;;6.57;;
3993;SDS011;2011;48.238;13.948;2023-11-22T09:48:45;10.93;;;7.70;;
3993;SDS011;2011;48.238;13.948;2023-11-22T09:51:18;11.70;;;6.10;;
3993;SDS011;2011;48.238;13.948;2023-11-22T09:53:52;13.27;;;6.63;;
3993;SDS011;2011;48.238;13.948;2023-11-22T09:56:21;13.13;;;5.83;;
3993;SDS011;2011;48.238;13.948;2023-11-22T09:58:51;12.00;;;6.30;;
3993;SDS011;2011;48.238;13.948;2023-11-22T10:01:21;9.07;;;6.00;;
3993;SDS011;2011;48.238;13.948;2023-11-22T10:03:48;9.90;;;4.63;;
3993;SDS011;2011;48.238;13.948;2023-11-22T10:06:16;9.00;;;4.57;;
3993;SDS011;2011;48.238;13.948;2023-11-22T10:08:45;5.70;;;4.17;;
3993;SDS011;2011;48.238;13.948;2023-11-22T10:11:14;6.17;;;4.67;;
3993;SDS011;2011;48.238;13.948;2023-11-22T10:13:42;6.67;;;4.77;;
3993;SDS011;2011;48.238;13.948;2023-11-22T10:16:11;6.80;;;5.00;;
3993;SDS011;2011;48.238;13.948;2023-11-22T10:18:41;6.53;;;4.70;;
3993;SDS011;2011;48.238;13.948;2023-11-22T10:23:54;6.87;;;4.77;;
3993;SDS011;2011;48.238;13.948;2023-11-22T10:26:22;7.00;;;5.00;;
3993;SDS011;2011;48.238;13.948;2023-11-22T10:28:50;7.50;;;5.50;;
3993;SDS011;2011;48.238;13.948;2023-11-22T10:31:18;8.63;;;5.97;;
3993;SDS011;2011;48.238;13.948;2023-11-22T10:33:47;8.00;;;4.87;;
3993;SDS011;2011;48.238;13.948;2023-11-22T10:36:14;8.03;;;5.53;;
3993;SDS011;2011;48.238;13.948;2023-11-22T10:38:45;10.83;;;5.90;;
3993;SDS011;2011;48.238;13.948;2023-11-22T10:41:14;8.00;;;5.50;;
3993;SDS011;2011;48.238;13.948;2023-11-22T10:43:41;7.47;;;5.40;;
3993;SDS011;2011;48.238;13.948;2023-11-22T10:46:09;7.20;;;5.33;;
3993;SDS011;2011;48.238;13.948;2023-11-22T10:48:39;8.40;;;4.87;;
3993;SDS011;2011;48.238;13.948;2023-11-22T10:51:06;8.37;;;5.60;;
3993;SDS011;2011;48.238;13.948;2023-11-22T10:53:41;10.60;;;5.90;;
3993;SDS011;2011;48.238;13.948;2023-11-22T10:56:16;8.20;;;5.70;;
3993;SDS011;2011;48.238;13.948;2023-11-22T10:58:46;7.60;;;5.80;;
3993;SDS011;2011;48.238;13.948;2023-11-22T11:01:15;11.20;;;6.30;;
3993;SDS011;2011;48.238;13.948;2023-11-22T11:03:45;12.40;;;6.10;;
3993;SDS011;2011;48.238;13.948;2023-11-22T11:06:18;8.90;;;6.27;;
3993;SDS011;2011;48.238;13.948;2023-11-22T11:08:52;9.20;;;6.17;;
3993;SDS011;2011;48.238;13.948;2023-11-22T11:11:22;9.20;;;6.53;;
3993;SDS011;2011;48.238;13.948;2023-11-22T11:13:51;8.53;;;6.27;;
3993;SDS011;2011;48.238;13.948;2023-11-22T11:16:19;9.67;;;6.00;;
3993;SDS011;2011;48.238;13.948;2023-11-22T11:18:47;10.87;;;5.87;;
3993;SDS011;2011;48.238;13.948;2023-11-22T11:21:14;9.80;;;6.50;;
3993;SDS011;2011;48.238;13.948;2023-11-22T11:23:41;9.70;;;6.43;;
3993;SDS011;2011;48.238;13.948;2023-11-22T11:26:14;9.43;;;5.77;;
3993;SDS011;2011;48.238;13.948;2023-11-22T11:28:44;10.60;;;6.20;;
3993;SDS011;2011;48.238;13.948;2023-11-22T11:31:13;8.80;;;6.00;;
3993;SDS011;2011;48.238;13.948;2023-11-22T11:33:53;13.80;;;7.30;;
3993;SDS011;2011;48.238;13.948;2023-11-22T11:36:22;8.97;;;6.53;;
3993;SDS011;2011;48.238;13.948;2023-11-22T11:38:51;10.60;;;6.33;;
3993;SDS011;2011;48.238;13.948;2023-11-22T11:41:22;9.77;;;7.00;;
3993;SDS011;2011;48.238;13.948;2023-11-22T11:43:53;16.97;;;6.97;;
3993;SDS011;2011;48.238;13.948;2023-11-22T11:46:21;9.00;;;6.23;;
3993;SDS011;2011;48.238;13.948;2023-11-22T11:48:50;8.97;;;5.77;;
3993;SDS011;2011;48.238;13.948;2023-11-22T11:51:18;7.93;;;5.80;;
3993;SDS011;2011;48.238;13.948;2023-11-22T11:53:49;8.60;;;6.40;;
3993;SDS011;2011;48.238;13.948;2023-11-22T11:56:15;9.10;;;6.30;;
3993;SDS011;2011;48.238;13.948;2023-11-22T11:58:43;10.63;;;5.87;;
3993;SDS011;2011;48.238;13.948;2023-11-22T12:01:12;8.60;;;6.00;;
3993;SDS011;2011;48.238;13.948;2023-11-22T12:03:40;8.40;;;5.47;;
3993;SDS011;2011;48.238;13.948;2023-11-22T12:06:07;9.27;;;6.30;;
3993;SDS011;2011;48.238;13.948;2023-11-22T12:08:34;9.43;;;6.33;;
3993;SDS011;2011;48.238;13.948;2023-11-22T12:11:01;12.50;;;5.90;;
3993;SDS011;2011;48.238;13.948;2023-11-22T12:13:30;9.73;;;5.97;;
3993;SDS011;2011;48.238;13.948;2023-11-22T12:15:58;9.50;;;5.60;;
3993;SDS011;2011;48.238;13.948;2023-11-22T12:18:29;8.23;;;5.83;;
3993;SDS011;2011;48.238;13.948;2023-11-22T12:20:58;11.93;;;5.77;;
3993;SDS011;2011;48.238;13.948;2023-11-22T12:23:26;9.17;;;6.33;;
3993;SDS011;2011;48.238;13.948;2023-11-22T12:25:54;8.57;;;5.23;;
3993;SDS011;2011;48.238;13.948;2023-11-22T12:28:23;7.50;;;5.67;;
3993;SDS011;2011;48.238;13.948;2023-11-22T12:30:50;9.67;;;5.90;;
3993;SDS011;2011;48.238;13.948;2023-11-22T12:33:20;10.47;;;6.13;;
3993;SDS011;2011;48.238;13.948;2023-11-22T12:35:48;9.30;;;5.93;;
3993;SDS011;2011;48.238;13.948;2023-11-22T12:38:15;8.20;;;5.43;;
3993;SDS011;2011;48.238;13.948;2023-11-22T12:40:46;9.33;;;6.00;;
3993;SDS011;2011;48.238;13.948;2023-11-22T12:43:13;8.50;;;5.77;;
3993;SDS011;2011;48.238;13.948;2023-11-22T12:45:41;8.97;;;5.53;;
3993;SDS011;2011;48.238;13.948;2023-11-22T12:48:20;8.50;;;5.50;;
3993;SDS011;2011;48.238;13.948;2023-11-22T12:50:50;8.63;;;4.67;;
3993;SDS011;2011;48.238;13.948;2023-11-22T12:53:19;8.00;;;5.47;;
3993;SDS011;2011;48.238;13.948;2023-11-22T12:55:48;10.43;;;6.10;;
3993;SDS011;2011;48.238;13.948;2023-11-22T12:58:16;9.63;;;5.50;;
3993;SDS011;2011;48.238;13.948;2023-11-22T13:00:44;10.00;;;5.90;;
3993;SDS011;2011;48.238;13.948;2023-11-22T13:03:12;8.73;;;5.73;;
3993;SDS011;2011;48.238;13.948;2023-11-22T13:05:40;9.30;;;6.33;;
3993;SDS011;2011;48.238;13.948;2023-11-22T13:08:11;8.50;;;5.97;;
3993;SDS011;2011;48.238;13.948;2023-11-22T13:10:39;11.80;;;5.93;;
3993;SDS011;2011;48.238;13.948;2023-11-22T13:13:06;9.53;;;6.20;;
3993;SDS011;2011;48.238;13.948;2023-11-22T13:15:35;10.40;;;6.53;;
3993;SDS011;2011;48.238;13.948;2023-11-22T13:18:02;10.30;;;6.33;;
3993;SDS011;2011;48.238;13.948;2023-11-22T13:20:31;10.13;;;6.70;;
3993;SDS011;2011;48.238;13.948;2023-11-22T13:22:58;7.60;;;5.40;;
3993;SDS011;2011;48.238;13.948;2023-11-22T13:25:27;9.40;;;5.73;;
3993;SDS011;2011;48.238;13.948;2023-11-22T13:27:55;13.03;;;6.70;;
3993;SDS011;2011;48.238;13.948;2023-11-22T13:30:24;9.33;;;5.83;;
3993;SDS011;2011;48.238;13.948;2023-11-22T13:32:52;11.30;;;6.50;;
3993;SDS011;2011;48.238;13.948;2023-11-22T13:35:21;12.90;;;6.23;;
3993;SDS011;2011;48.238;13.948;2023-11-22T13:37:49;10.23;;;6.10;;
3993;SDS011;2011;48.238;13.948;2023-11-22T13:40:18;8.97;;;5.60;;
3993;SDS011;2011;48.238;13.948;2023-11-22T13:42:49;8.90;;;5.90;;
3993;SDS011;2011;48.238;13.948;2023-11-22T13:45:18;12.13;;;7.90;;
3993;SDS011;2011;48.238;13.948;2023-11-22T13:47:46;9.77;;;6.13;;
3993;SDS011;2011;48.238;13.948;2023-11-22T13:50:15;11.10;;;7.13;;
3993;SDS011;2011;48.238;13.948;2023-11-22T13:52:44;8.83;;;6.53;;
3993;SDS011;2011;48.238;13.948;2023-11-22T13:55:12;12.23;;;6.43;;
3993;SDS011;2011;48.238;13.948;2023-11-22T13:57:40;11.17;;;7.30;;
3993;SDS011;2011;48.238;13.948;2023-11-22T14:00:09;10.80;;;6.97;;
3993;SDS011;2011;48.238;13.948;2023-11-22T14:02:38;9.50;;;6.53;;
3993;SDS011;2011;48.238;13.948;2023-11-22T14:05:06;10.13;;;6.90;;
3993;SDS011;2011;48.238;13.948;2023-11-22T14:07:34;13.60;;;7.23;;
3993;SDS011;2011;48.238;13.948;2023-11-22T14:10:02;11.13;;;6.80;;
3993;SDS011;2011;48.238;13.948;2023-11-22T14:12:30;10.13;;;6.70;;
3993;SDS011;2011;48.238;13.948;2023-11-22T14:14:57;16.13;;;6.63;;
3993;SDS011;2011;48.238;13.948;2023-11-22T14:17:26;10.60;;;5.80;;
3993;SDS011;2011;48.238;13.948;2023-11-22T14:19:53;18.93;;;7.03;;
3993;SDS011;2011;48.238;13.948;2023-11-22T14:22:20;13.07;;;7.07;;
3993;SDS011;2011;48.238;13.948;2023-11-22T14:24:48;11.00;;;6.10;;
3993;SDS011;2011;48.238;13.948;2023-11-22T14:27:15;10.77;;;6.60;;
3993;SDS011;2011;48.238;13.948;2023-11-22T14:29:43;9.47;;;6.40;;
3993;SDS011;2011;48.238;13.948;2023-11-22T14:32:13;14.30;;;6.90;;
3993;SDS011;2011;48.238;13.948;2023-11-22T14:34:41;11.20;;;7.10;;
3993;SDS011;2011;48.238;13.948;2023-11-22T14:37:09;10.63;;;6.93;;
3993;SDS011;2011;48.238;13.948;2023-11-22T14:39:36;9.87;;;6.87;;
3993;SDS011;2011;48.238;13.948;2023-11-22T14:42:03;10.73;;;6.53;;
3993;SDS011;2011;48.238;13.948;2023-11-22T14:44:32;10.30;;;6.63;;
3993;SDS011;2011;48.238;13.948;2023-11-22T14:47:00;9.70;;;6.40;;
3993;SDS011;2011;48.238;13.948;2023-11-22T14:49:31;11.27;;;6.90;;
3993;SDS011;2011;48.238;13.948;2023-11-22T14:52:00;10.10;;;7.17;;
3993;SDS011;2011;48.238;13.948;2023-11-22T14:54:29;14.10;;;6.87;;
3993;SDS011;2011;48.238;13.948;2023-11-22T14:56:56;10.63;;;6.67;;
3993;SDS011;2011;48.238;13.948;2023-11-22T14:59:27;9.90;;;6.63;;
3993;SDS011;2011;48.238;13.948;2023-11-22T15:01:55;12.13;;;7.43;;
3993;SDS011;2011;48.238;13.948;2023-11-22T15:04:23;12.43;;;7.77;;